Time;durP1;ratioP1;P1;durP2;ratioP2;P2;SDS_P1;SDS_P2;PMS_P1;PMS_P2;Temp;Humidity;BMP_temperature;BMP_pressure;BME280_temperature;BME280_humidity;BME280_pressure;Samples;Min_cycle;Max_cycle;Signal;HPM_P1;HPM_P2
2022/03/24 00:00:37;;;;;;;31.03;10.57;;;;;;;4.40;43.90;102224.06;2098889;28;20727;-67
2022/03/24 00:01:38;;;;;;;33.60;11.25;;;;;;;4.17;43.90;102182.69;2098281;28;20186;-68
2022/03/24 00:02:39;;;;;;;22.60;10.77;;;;;;;5.06;43.90;102327.44;2098299;28;20267;-67
2022/03/24 00:03:40;;;;;;;22.08;10.25;;;;;;;5.04;43.66;102323.44;2098562;28;20207;-67
2022/03/24 00:04:40;;;;;;;18.47;10.00;;;;;;;4.99;43.49;102329.19;2098677;28;20183;-67
2022/03/24 00:05:41;;;;;;;22.07;10.80;;;;;;;4.96;43.66;102316.97;2099003;28;20175;-67
2022/03/24 00:06:42;;;;;;;19.97;10.50;;;;;;;4.93;43.00;102316.88;2098817;28;20202;-66
2022/03/24 00:07:43;;;;;;;16.17;9.60;;;;;;;4.91;43.56;102325.47;2097996;28;20179;-67
2022/03/24 00:08:43;;;;;;;19.80;10.30;;;;;;;4.58;43.36;102277.50;2098242;28;20232;-67
2022/03/24 00:09:44;;;;;;;17.83;10.40;;;;;;;4.73;43.55;102296.72;2098708;28;20235;-66
2022/03/24 00:10:44;;;;;;;20.40;11.47;;;;;;;4.83;43.56;102317.41;2098806;28;20183;-66
2022/03/24 00:11:46;;;;;;;18.07;10.50;;;;;;;4.84;43.81;102314.31;2098945;28;20180;-67
2022/03/24 00:12:47;;;;;;;16.88;10.02;;;;;;;4.77;44.17;102292.13;2098297;28;20183;-67
2022/03/24 00:13:50;;;;;;;18.73;10.20;;;;;;;4.50;44.12;102256.47;2098346;28;20175;-66
2022/03/24 00:14:51;;;;;;;18.23;10.68;;;;;;;4.76;44.30;102304.28;2098864;28;20543;-66
2022/03/24 00:15:51;;;;;;;16.77;10.87;;;;;;;4.63;44.57;102302.75;2098767;28;20283;-67
2022/03/24 00:16:52;;;;;;;17.33;10.30;;;;;;;4.65;45.03;102307.88;2098161;28;20180;-66
2022/03/24 00:17:53;;;;;;;20.03;11.23;;;;;;;4.54;44.94;102313.09;2097814;28;20175;-67
2022/03/24 00:18:54;;;;;;;18.65;11.60;;;;;;;4.34;44.70;102313.28;2099058;28;20187;-67
2022/03/24 00:19:54;;;;;;;20.53;11.53;;;;;;;4.24;44.30;102319.28;2098646;28;20665;-67
2022/03/24 00:20:54;;;;;;;20.50;11.77;;;;;;;4.01;45.14;102294.31;2098775;28;20183;-67
2022/03/24 00:21:56;;;;;;;19.27;10.57;;;;;;;4.06;44.89;102315.25;2098514;28;20179;-67
2022/03/24 00:22:57;;;;;;;18.20;11.00;;;;;;;3.24;45.77;102193.31;2098052;28;20183;-66
2022/03/24 00:23:57;;;;;;;20.43;12.27;;;;;;;4.07;45.50;102314.91;2098103;28;20804;-66
2022/03/24 00:24:58;;;;;;;20.23;10.07;;;;;;;3.49;46.46;102221.47;2098548;28;20176;-66
2022/03/24 00:25:59;;;;;;;17.93;11.60;;;;;;;3.54;46.02;102235.72;2098513;28;20176;-67
2022/03/24 00:26:59;;;;;;;21.47;12.17;;;;;;;4.08;46.30;102308.25;2098775;28;20182;-66
2022/03/24 00:28:00;;;;;;;17.50;10.97;;;;;;;4.13;46.48;102310.75;2098431;28;20176;-67
2022/03/24 00:29:02;;;;;;;21.17;11.40;;;;;;;4.14;46.45;102306.88;2098583;28;20180;-67
2022/03/24 00:30:03;;;;;;;16.45;9.45;;;;;;;4.17;46.76;102303.44;2098633;28;20223;-67
2022/03/24 00:31:05;;;;;;;17.98;10.40;;;;;;;4.21;46.22;102300.78;2098679;28;20756;-66
2022/03/24 00:32:05;;;;;;;16.55;9.75;;;;;;;3.65;46.66;102227.81;2098248;28;20198;-67
2022/03/24 00:33:07;;;;;;;18.03;10.40;;;;;;;3.59;46.35;102193.59;2098439;28;20191;-67
2022/03/24 00:34:07;;;;;;;15.23;9.10;;;;;;;4.32;46.62;102297.16;2098048;28;20181;-67
2022/03/24 00:35:09;;;;;;;18.97;10.37;;;;;;;4.29;46.63;102286.09;2098751;28;20180;-67
2022/03/24 00:36:10;;;;;;;16.83;8.82;;;;;;;3.22;46.15;102126.28;2098477;28;20571;-67
2022/03/24 00:37:11;;;;;;;20.15;9.82;;;;;;;4.38;46.48;102284.81;2098521;28;20176;-67
2022/03/24 00:38:11;;;;;;;16.47;8.80;;;;;;;4.30;46.44;102263.81;2097598;28;20204;-67
2022/03/24 00:39:12;;;;;;;14.23;8.70;;;;;;;4.40;46.08;102266.03;2098124;28;20187;-67
2022/03/24 00:40:16;;;;;;;17.83;9.73;;;;;;;4.49;46.71;102274.09;2098485;28;20309;-67
2022/03/24 00:41:17;;;;;;;15.75;10.07;;;;;;;4.51;46.50;102267.13;2097875;28;20225;-67
2022/03/24 00:42:22;;;;;;;21.00;11.50;;;;;;;4.60;47.09;102278.75;2097437;28;20264;-67
2022/03/24 00:43:23;;;;;;;18.63;11.63;;;;;;;4.65;46.76;102278.47;2098468;28;20222;-67
2022/03/24 00:44:24;;;;;;;18.02;10.23;;;;;;;4.67;46.79;102276.16;2097899;28;20191;-67
2022/03/24 00:45:25;;;;;;;16.03;10.67;;;;;;;4.27;46.20;102214.31;2098491;28;20186;-67
2022/03/24 00:46:25;;;;;;;18.03;9.03;;;;;;;4.26;46.12;102208.00;2098436;28;20793;-67
2022/03/24 00:47:26;;;;;;;14.17;9.23;;;;;;;4.48;45.94;102236.81;2098319;28;20263;-67
2022/03/24 00:48:27;;;;;;;17.33;8.98;;;;;;;4.72;45.78;102267.69;2098385;28;20195;-67
2022/03/24 00:49:28;;;;;;;14.30;9.27;;;;;;;4.61;46.26;102269.34;2098591;28;20231;-67
2022/03/24 00:50:28;;;;;;;16.77;10.23;;;;;;;4.65;46.63;102255.69;2098320;28;20171;-67
2022/03/24 00:51:29;;;;;;;14.00;8.27;;;;;;;4.40;45.97;102215.81;2098561;28;20525;-67
2022/03/24 00:52:29;;;;;;;14.93;8.47;;;;;;;4.35;46.20;102205.91;2098011;28;20183;-67
2022/03/24 00:53:30;;;;;;;14.57;6.80;;;;;;;4.77;45.34;102266.63;2098478;28;20277;-67
2022/03/24 00:54:31;;;;;;;15.70;8.57;;;;;;;4.72;45.19;102269.63;2097886;28;20180;-67
2022/03/24 00:55:31;;;;;;;13.97;7.70;;;;;;;4.57;45.24;102253.94;2098448;28;20187;-67
2022/03/24 00:56:32;;;;;;;16.93;8.70;;;;;;;4.71;45.51;102270.75;2098386;28;20422;-67
2022/03/24 00:57:32;;;;;;;14.70;8.07;;;;;;;4.72;45.23;102266.88;2098108;28;20194;-67
2022/03/24 00:58:33;;;;;;;18.03;7.73;;;;;;;3.92;45.14;102131.84;2098241;28;20203;-67
2022/03/24 00:59:34;;;;;;;14.60;7.03;;;;;;;4.72;45.00;102264.16;2097814;28;20180;-67
2022/03/24 01:00:36;;;;;;;15.70;8.57;;;;;;;3.63;44.87;102118.50;2097767;28;20188;-67
2022/03/24 01:01:39;;;;;;;12.13;6.78;;;;;;;4.70;45.44;102260.94;2098463;28;20238;-66
2022/03/24 01:02:39;;;;;;;16.13;7.82;;;;;;;4.70;45.24;102259.00;2097932;28;20649;-67
2022/03/24 01:03:41;;;;;;;13.07;7.00;;;;;;;4.69;44.88;102262.09;2098014;28;20180;-67
2022/03/24 01:04:41;;;;;;;13.95;6.50;;;;;;;4.71;45.31;102259.78;2098332;28;20181;-67
2022/03/24 01:05:42;;;;;;;18.07;8.63;;;;;;;4.72;45.84;102258.66;2098399;28;20184;-67
2022/03/24 01:06:43;;;;;;;15.43;9.03;;;;;;;4.75;46.51;102260.69;2098373;28;20236;-67
2022/03/24 01:07:44;;;;;;;13.67;7.50;;;;;;;4.77;45.63;102258.41;2098422;28;20183;-67
2022/03/24 01:08:45;;;;;;;9.43;5.95;;;;;;;4.76;45.06;102259.53;2098341;28;20179;-67
2022/03/24 01:09:45;;;;;;;12.50;6.43;;;;;;;4.77;45.03;102261.13;2098444;28;20212;-67
2022/03/24 01:10:47;;;;;;;11.80;6.17;;;;;;;4.73;45.31;102258.28;2098279;28;20203;-67
2022/03/24 01:11:48;;;;;;;10.60;5.75;;;;;;;4.63;45.31;102245.09;2098411;28;20190;-67
2022/03/24 01:12:49;;;;;;;9.90;5.43;;;;;;;4.71;45.25;102254.28;2097842;28;20179;-67
2022/03/24 01:13:51;;;;;;;10.80;5.80;;;;;;;4.77;44.92;102250.16;2097766;28;20191;-67
2022/03/24 01:14:52;;;;;;;12.02;5.28;;;;;;;4.80;44.90;102260.41;2098323;28;20175;-67
2022/03/24 01:15:52;;;;;;;9.20;4.53;;;;;;;4.77;44.72;102252.91;2098214;28;20183;-67
2022/03/24 01:16:53;;;;;;;14.63;4.33;;;;;;;4.73;44.51;102244.53;2098410;28;20234;-67
2022/03/24 01:17:55;;;;;;;8.47;4.77;;;;;;;4.64;44.63;102212.94;2097963;28;20188;-67
2022/03/24 01:18:56;;;;;;;11.38;4.72;;;;;;;4.87;44.01;102252.38;2098355;28;20570;-67
2022/03/24 01:19:57;;;;;;;13.03;4.70;;;;;;;4.86;44.35;102248.81;2098158;28;20226;-67
2022/03/24 01:21:00;;;;;;;13.93;6.50;;;;;;;3.83;44.98;102073.63;2098208;28;20194;-67
2022/03/24 01:22:01;;;;;;;14.02;7.20;;;;;;;4.94;45.17;102244.28;2098084;28;20672;-67
2022/03/24 01:23:02;;;;;;;12.60;5.97;;;;;;;4.96;45.32;102241.97;2097497;28;20656;-67
2022/03/24 01:24:02;;;;;;;12.97;5.07;;;;;;;4.84;45.08;102211.88;2096916;28;20708;-67
2022/03/24 01:25:05;;;;;;;11.83;5.50;;;;;;;5.03;44.84;102240.19;2098353;28;20167;-67
2022/03/24 01:26:05;;;;;;;13.50;6.90;;;;;;;5.07;44.54;102241.09;2097956;28;20250;-67
2022/03/24 01:27:06;;;;;;;9.93;5.83;;;;;;;4.68;44.68;102173.44;2098419;28;20548;-67
2022/03/24 01:28:06;;;;;;;11.47;5.40;;;;;;;5.01;44.87;102234.28;2097922;28;20173;-67
2022/03/24 01:29:08;;;;;;;13.20;6.07;;;;;;;4.93;44.63;102228.97;2098184;28;20613;-67
2022/03/24 01:30:09;;;;;;;16.05;7.25;;;;;;;4.94;45.85;102239.59;2098096;28;20168;-67
2022/03/24 01:31:10;;;;;;;15.25;8.65;;;;;;;4.88;46.98;102245.72;2098366;28;20172;-68
2022/03/24 01:32:11;;;;;;;13.95;8.13;;;;;;;4.88;47.42;102238.25;2097593;28;20253;-67
2022/03/24 01:33:12;;;;;;;17.55;8.07;;;;;;;4.82;46.82;102234.19;2098039;28;20179;-67
2022/03/24 01:34:13;;;;;;;14.30;8.47;;;;;;;4.87;47.71;102236.66;2097389;28;20206;-67
2022/03/24 01:35:15;;;;;;;14.37;9.10;;;;;;;4.92;48.19;102233.66;2098274;28;20172;-67
2022/03/24 01:36:16;;;;;;;16.02;9.20;;;;;;;4.95;48.63;102230.22;2098145;28;20168;-67
2022/03/24 01:37:17;;;;;;;12.83;8.70;;;;;;;4.99;48.57;102222.84;2098158;28;20202;-67
2022/03/24 01:38:19;;;;;;;14.40;8.07;;;;;;;5.02;47.86;102227.63;2097851;28;20202;-67
2022/03/24 01:39:19;;;;;;;15.98;9.48;;;;;;;5.03;50.69;102217.44;2098201;28;20409;-66
2022/03/24 01:40:20;;;;;;;12.80;7.47;;;;;;;5.07;48.94;102219.09;2097449;28;20241;-67
2022/03/24 01:41:21;;;;;;;16.63;8.73;;;;;;;5.10;49.54;102226.66;2097530;28;20649;-67
2022/03/24 01:42:22;;;;;;;15.55;8.95;;;;;;;4.69;50.05;102155.81;2097465;28;20267;-67
2022/03/24 01:43:23;;;;;;;15.23;9.47;;;;;;;5.13;49.20;102217.66;2098178;28;20180;-67
2022/03/24 01:44:24;;;;;;;13.70;8.30;;;;;;;5.17;50.55;102218.56;2096633;28;20186;-67
2022/03/24 01:45:26;;;;;;;18.23;9.93;;;;;;;5.20;53.20;102217.84;2097480;28;20179;-67
2022/03/24 01:46:28;;;;;;;19.75;10.45;;;;;;;5.22;53.33;102223.78;2097284;28;20186;-67
2022/03/24 01:47:29;;;;;;;15.95;10.10;;;;;;;5.24;54.19;102223.44;2096855;28;20180;-67
2022/03/24 01:48:30;;;;;;;16.97;10.77;;;;;;;5.00;54.72;102174.19;2097625;28;20172;-67
2022/03/24 01:49:33;;;;;;;22.67;11.43;;;;;;;5.31;53.97;102216.16;2098150;28;20600;-67
2022/03/24 01:50:39;;;;;;;20.13;10.90;;;;;;;5.33;54.72;102216.56;2097903;28;20180;-67
2022/03/24 01:51:43;;;;;;;18.77;10.45;;;;;;;4.76;54.23;102131.25;2098149;28;20160;-67
2022/03/24 01:52:44;;;;;;;18.85;10.38;;;;;;;5.36;52.86;102212.31;2097513;28;20176;-67
2022/03/24 01:53:44;;;;;;;15.67;9.57;;;;;;;5.37;53.14;102222.94;2097732;28;20176;-67
2022/03/24 01:54:47;;;;;;;16.87;9.53;;;;;;;5.40;52.11;102213.19;2097915;28;20179;-67
2022/03/24 01:55:50;;;;;;;16.38;9.10;;;;;;;5.42;51.15;102213.63;2097890;28;20230;-67
2022/03/24 01:56:51;;;;;;;17.63;9.38;;;;;;;5.42;51.09;102210.88;2097898;28;20172;-67
2022/03/24 01:57:53;;;;;;;13.85;9.05;;;;;;;5.42;51.14;102219.13;2097594;28;20176;-67
2022/03/24 01:58:54;;;;;;;15.15;9.05;;;;;;;5.41;50.74;102218.34;2098031;28;20176;-67
2022/03/24 01:59:55;;;;;;;17.75;9.90;;;;;;;4.95;51.03;102166.22;2097340;28;20211;-67
2022/03/24 02:01:25;;;;;;;14.85;9.52;;;;;;;5.37;50.41;102225.69;2097411;28;20171;-67
2022/03/24 02:02:26;;;;;;;16.30;8.60;;;;;;;5.36;50.46;102218.63;2097448;28;20637;-67
2022/03/24 02:03:27;;;;;;;17.13;9.80;;;;;;;4.50;50.26;102086.28;2098052;28;20572;-67
2022/03/24 02:04:30;;;;;;;14.73;8.97;;;;;;;5.33;49.95;102227.56;2097225;28;20184;-67
2022/03/24 02:05:36;;;;;;;22.17;9.70;;;;;;;5.31;50.60;102224.41;2097974;28;20181;-67
2022/03/24 02:06:37;;;;;;;16.88;10.68;;;;;;;5.26;51.04;102210.94;2097865;28;20574;-67
2022/03/24 02:07:38;;;;;;;16.92;9.48;;;;;;;5.31;49.90;102221.66;2097753;28;20181;-67
2022/03/24 02:08:38;;;;;;;19.53;9.07;;;;;;;5.16;48.06;102203.22;2097097;28;20184;-67
2022/03/24 02:09:40;;;;;;;21.50;9.20;;;;;;;5.26;48.66;102216.41;2097194;28;20282;-67
2022/03/24 02:10:41;;;;;;;15.50;8.88;;;;;;;5.21;47.55;102218.63;2097760;28;20713;-66
2022/03/24 02:11:42;;;;;;;22.57;9.80;;;;;;;5.18;47.52;102217.41;2096839;28;20549;-67
2022/03/24 02:12:42;;;;;;;14.38;9.25;;;;;;;5.14;48.25;102213.00;2088288;28;20250;-67
2022/03/24 02:13:43;;;;;;;18.00;9.87;;;;;;;5.06;48.97;102211.22;2097019;28;20180;-66
2022/03/24 02:14:43;;;;;;;14.33;8.43;;;;;;;3.69;47.50;101992.94;2097577;28;20631;-66
2022/03/24 02:15:44;;;;;;;19.83;10.13;;;;;;;5.05;48.91;102220.63;2097897;28;20175;-67
2022/03/24 02:16:48;;;;;;;18.27;8.50;;;;;;;4.99;48.32;102220.09;2093263;28;20173;-67
2022/03/24 02:17:48;;;;;;;19.95;8.80;;;;;;;4.92;48.80;102219.91;2089129;28;20168;-67
2022/03/24 02:18:49;;;;;;;20.73;9.23;;;;;;;4.58;48.79;102176.72;2089653;28;20177;-67
2022/03/24 02:19:49;;;;;;;46.23;11.33;;;;;;;4.40;48.91;102156.25;2091111;28;20204;-66
2022/03/24 02:20:51;;;;;;;41.77;11.47;;;;;;;4.76;48.63;102215.56;2097760;28;20176;-67
2022/03/24 02:21:54;;;;;;;40.70;10.77;;;;;;;4.71;48.95;102208.41;2097547;28;20227;-66
2022/03/24 02:22:55;;;;;;;28.58;9.77;;;;;;;4.67;49.17;102225.97;2097370;28;20657;-67
2022/03/24 02:23:55;;;;;;;22.07;9.17;;;;;;;4.63;49.17;102214.91;2097219;28;20639;-66
2022/03/24 02:24:56;;;;;;;26.37;11.00;;;;;;;4.60;49.76;102209.28;2097602;28;20176;-66
2022/03/24 02:25:57;;;;;;;22.17;9.30;;;;;;;3.58;48.73;102058.44;2097550;28;20176;-66
2022/03/24 02:26:59;;;;;;;23.38;9.13;;;;;;;4.50;49.15;102218.84;2097852;28;20184;-66
2022/03/24 02:28:02;;;;;;;26.08;9.65;;;;;;;4.46;49.84;102215.22;2096845;28;20222;-67
2022/03/24 02:29:07;;;;;;;22.42;9.80;;;;;;;3.35;49.42;102045.66;2097085;28;20255;-67
2022/03/24 02:30:09;;;;;;;28.65;9.18;;;;;;;3.62;49.60;102086.75;2097568;28;20348;-67
2022/03/24 02:31:10;;;;;;;22.38;9.25;;;;;;;4.39;49.57;102209.56;2097796;28;20175;-67
2022/03/24 02:32:11;;;;;;;20.37;9.30;;;;;;;3.36;50.17;102052.72;2097181;28;20176;-66
2022/03/24 02:33:12;;;;;;;21.15;10.20;;;;;;;3.07;51.32;102015.53;2097697;28;20263;-67
2022/03/24 02:35:36;;;;;;;24.95;9.70;;;;;;;4.34;50.84;102211.75;2097665;28;20195;-67
2022/03/24 02:36:39;;;;;;;24.33;11.03;;;;;;;4.30;52.38;102211.66;2097571;28;20654;-66
2022/03/24 02:37:40;;;;;;;19.23;10.50;;;;;;;4.27;53.76;102217.06;2097413;28;20237;-66
2022/03/24 02:38:40;;;;;;;17.50;10.33;;;;;;;4.27;55.38;102206.06;2097418;28;20718;-66
2022/03/24 02:39:43;;;;;;;24.00;11.37;;;;;;;4.26;54.75;102213.50;2097776;28;20172;-66
2022/03/24 02:40:44;;;;;;;19.20;11.00;;;;;;;4.26;55.56;102212.72;2097584;28;20606;-67
2022/03/24 02:41:51;;;;;;;22.65;11.68;;;;;;;4.28;54.36;102211.22;2096898;28;20748;-66
2022/03/24 02:42:52;;;;;;;24.33;12.13;;;;;;;4.27;55.20;102212.34;2096636;28;20172;-66
2022/03/24 02:43:52;;;;;;;22.83;11.80;;;;;;;4.26;54.92;102204.50;2097130;28;20371;-66
2022/03/24 02:44:55;;;;;;;21.70;12.23;;;;;;;4.27;54.51;102214.31;2097540;28;20258;-66
2022/03/24 02:45:57;;;;;;;22.83;11.95;;;;;;;4.28;53.95;102215.91;2097321;28;20172;-67
2022/03/24 02:47:00;;;;;;;23.70;12.25;;;;;;;4.27;54.38;102212.34;2096976;28;20187;-66
2022/03/24 02:48:02;;;;;;;21.70;11.57;;;;;;;4.26;54.53;102208.00;2096728;28;20172;-66
2022/03/24 02:49:03;;;;;;;24.40;11.35;;;;;;;4.21;52.27;102200.03;2097605;28;20178;-66
2022/03/24 02:50:05;;;;;;;20.50;11.27;;;;;;;4.29;52.55;102209.25;2097645;28;20172;-66
2022/03/24 02:51:06;;;;;;;24.25;11.50;;;;;;;3.50;53.43;102108.72;2097586;28;20225;-66
2022/03/24 02:52:08;;;;;;;26.63;11.77;;;;;;;4.33;52.64;102204.66;2096923;28;20183;-66
2022/03/24 02:53:09;;;;;;;19.55;10.45;;;;;;;4.34;51.69;102214.50;2097660;28;20213;-66
2022/03/24 02:54:11;;;;;;;24.92;11.70;;;;;;;4.35;51.46;102197.66;2097009;28;20219;-66
2022/03/24 02:55:11;;;;;;;23.00;11.00;;;;;;;4.32;51.73;102203.84;2097559;28;20172;-67
2022/03/24 02:56:12;;;;;;;20.57;11.33;;;;;;;4.33;51.91;102215.63;2097332;28;20205;-66
2022/03/24 02:57:12;;;;;;;23.30;11.47;;;;;;;3.57;51.88;102092.50;2097582;28;20646;-66
2022/03/24 02:58:13;;;;;;;23.70;10.83;;;;;;;3.77;51.72;102123.59;2097197;28;20179;-66
2022/03/24 02:59:14;;;;;;;18.87;10.50;;;;;;;4.32;51.69;102211.31;2097610;28;20192;-66
2022/03/24 03:00:15;;;;;;;21.48;10.63;;;;;;;4.32;52.33;102203.06;2097401;28;20179;-67
2022/03/24 03:01:18;;;;;;;23.77;10.63;;;;;;;4.30;52.05;102205.34;2097568;28;20254;-67
2022/03/24 03:02:19;;;;;;;22.42;10.32;;;;;;;4.28;52.50;102204.91;2096880;28;20421;-66
2022/03/24 03:03:22;;;;;;;20.27;10.27;;;;;;;3.72;52.17;102108.19;2097588;28;20195;-66
2022/03/24 03:04:22;;;;;;;28.73;11.07;;;;;;;4.22;52.61;102198.09;2096743;28;20179;-67
2022/03/24 03:05:23;;;;;;;28.63;11.33;;;;;;;4.29;52.25;102199.09;2097370;28;20171;-66
2022/03/24 03:06:23;;;;;;;27.23;10.63;;;;;;;4.27;52.24;102195.88;2097390;28;20168;-66
2022/03/24 03:07:24;;;;;;;24.70;11.50;;;;;;;4.02;52.18;102156.03;2097325;28;20179;-66
2022/03/24 03:08:25;;;;;;;28.50;11.80;;;;;;;4.26;52.26;102201.75;2096605;28;20258;-66
2022/03/24 03:09:25;;;;;;;25.15;10.95;;;;;;;4.25;53.01;102200.16;2096772;28;20188;-67
2022/03/24 03:10:26;;;;;;;26.87;11.27;;;;;;;4.22;53.42;102198.09;2097361;28;20237;-66
2022/03/24 03:11:27;;;;;;;25.73;11.17;;;;;;;4.22;52.96;102198.91;2097514;28;20637;-66
2022/03/24 03:12:28;;;;;;;20.75;11.90;;;;;;;4.22;53.28;102189.88;2096863;28;20191;-67
2022/03/24 03:13:28;;;;;;;26.83;11.27;;;;;;;4.22;53.78;102184.38;2097396;28;20168;-66
2022/03/24 03:14:29;;;;;;;27.33;11.43;;;;;;;4.21;53.57;102191.03;2096685;28;20252;-67
2022/03/24 03:15:30;;;;;;;21.67;11.43;;;;;;;4.19;53.47;102185.06;2097329;28;20167;-66
2022/03/24 03:16:30;;;;;;;21.43;11.33;;;;;;;4.05;54.26;102154.53;2097364;28;20230;-66
2022/03/24 03:17:33;;;;;;;30.20;12.17;;;;;;;4.14;53.56;102174.34;2096497;28;20241;-66
2022/03/24 03:18:34;;;;;;;33.25;12.55;;;;;;;4.24;53.94;102182.06;2096823;28;20171;-66
2022/03/24 03:19:35;;;;;;;23.17;11.50;;;;;;;4.20;53.58;102172.97;2097497;28;20283;-67
2022/03/24 03:20:36;;;;;;;29.15;10.93;;;;;;;4.23;53.73;102175.00;2097324;28;20617;-67
2022/03/24 03:21:37;;;;;;;27.00;11.88;;;;;;;4.10;53.28;102157.81;2097223;28;20227;-66
2022/03/24 03:22:38;;;;;;;27.88;11.65;;;;;;;4.18;53.16;102180.75;2096381;28;20184;-66
2022/03/24 03:23:39;;;;;;;28.33;11.77;;;;;;;4.19;52.85;102182.31;2096686;28;20175;-66
2022/03/24 03:24:39;;;;;;;31.50;11.50;;;;;;;4.15;53.43;102186.94;2097381;28;20171;-66
2022/03/24 03:25:40;;;;;;;37.80;12.17;;;;;;;4.13;53.74;102181.81;2097243;28;20653;-66
2022/03/24 03:26:40;;;;;;;34.33;12.10;;;;;;;4.11;54.05;102183.31;2097020;28;20175;-66
2022/03/24 03:27:41;;;;;;;27.47;12.63;;;;;;;4.10;53.97;102184.47;2097165;28;20176;-67
2022/03/24 03:28:41;;;;;;;26.90;12.87;;;;;;;4.03;54.27;102174.09;2097232;28;20221;-66
2022/03/24 03:29:42;;;;;;;22.47;12.97;;;;;;;3.44;54.77;102079.97;2097377;28;20191;-67
2022/03/24 03:30:43;;;;;;;23.57;12.83;;;;;;;4.04;55.47;102166.63;2097247;28;20183;-66
2022/03/24 03:31:43;;;;;;;23.27;13.70;;;;;;;4.00;55.31;102152.81;2097452;28;20615;-66
2022/03/24 03:32:44;;;;;;;23.20;13.37;;;;;;;4.10;55.61;102176.22;2096769;28;20185;-67
2022/03/24 03:33:45;;;;;;;25.60;13.90;;;;;;;4.10;55.84;102168.00;2096795;28;20286;-66
2022/03/24 03:34:45;;;;;;;24.73;13.37;;;;;;;4.11;55.50;102164.09;2097243;28;20179;-66
2022/03/24 03:35:46;;;;;;;21.83;12.67;;;;;;;3.31;55.59;102042.03;2097312;28;20252;-67
2022/03/24 03:36:47;;;;;;;24.80;13.40;;;;;;;4.07;55.71;102174.16;2097280;28;20183;-66
2022/03/24 03:37:47;;;;;;;24.25;13.02;;;;;;;4.09;55.69;102169.13;2097129;28;20175;-67
2022/03/24 03:38:48;;;;;;;24.67;13.30;;;;;;;3.41;55.38;102088.91;2097297;28;20175;-66
2022/03/24 03:39:50;;;;;;;21.85;12.98;;;;;;;4.05;55.59;102171.78;2097326;28;20175;-66
2022/03/24 03:40:52;;;;;;;23.00;12.77;;;;;;;4.06;55.61;102178.84;2097255;28;20172;-67
2022/03/24 03:41:54;;;;;;;25.55;12.95;;;;;;;4.06;55.95;102173.34;2097254;28;20560;-66
2022/03/24 03:42:54;;;;;;;25.13;12.80;;;;;;;4.03;55.49;102165.84;2096781;28;20259;-67
2022/03/24 03:43:55;;;;;;;23.57;12.60;;;;;;;4.04;55.37;102164.69;2096067;28;20191;-66
2022/03/24 03:44:57;;;;;;;19.65;13.20;;;;;;;4.05;55.81;102162.75;2096615;28;20176;-66
2022/03/24 03:45:58;;;;;;;23.15;13.50;;;;;;;4.03;55.64;102165.84;2096293;28;20180;-66
2022/03/24 03:46:59;;;;;;;24.92;13.25;;;;;;;4.02;55.73;102164.25;2096714;28;20278;-66
2022/03/24 03:47:59;;;;;;;26.70;14.40;;;;;;;3.99;56.12;102153.97;2096953;28;20259;-67
2022/03/24 03:49:00;;;;;;;25.20;15.17;;;;;;;2.75;56.50;101955.50;2097281;28;20250;-66
2022/03/24 03:50:01;;;;;;;23.83;15.65;;;;;;;3.99;56.42;102150.44;2097165;28;20167;-66
2022/03/24 03:51:02;;;;;;;20.30;14.40;;;;;;;3.99;56.50;102153.16;2097394;28;20164;-66
2022/03/24 03:52:03;;;;;;;25.15;15.73;;;;;;;4.05;56.17;102160.78;2096906;28;20530;-66
2022/03/24 03:53:04;;;;;;;23.10;15.40;;;;;;;4.05;56.62;102160.03;2097436;28;20194;-67
2022/03/24 03:54:05;;;;;;;28.20;15.90;;;;;;;4.05;56.60;102162.75;2096769;28;20199;-66
2022/03/24 03:55:07;;;;;;;25.67;16.73;;;;;;;4.04;56.96;102167.44;2097298;28;20230;-67
2022/03/24 03:56:08;;;;;;;27.02;16.98;;;;;;;4.07;58.06;102160.47;2097284;28;20238;-66
2022/03/24 03:57:09;;;;;;;20.27;15.43;;;;;;;4.07;58.00;102164.00;2097108;28;20206;-66
2022/03/24 03:58:11;;;;;;;23.80;17.00;;;;;;;4.05;57.29;102154.53;2096776;28;20180;-66
2022/03/24 03:59:11;;;;;;;25.40;15.20;;;;;;;4.07;57.49;102161.25;2097402;28;20166;-66
2022/03/24 04:01:31;;;;;;;27.25;16.05;;;;;;;2.89;58.37;101984.13;2097503;28;20667;-66
2022/03/24 04:02:32;;;;;;;25.37;15.77;;;;;;;4.11;59.04;102151.16;2096524;28;20180;-66
2022/03/24 04:03:35;;;;;;;25.20;15.73;;;;;;;4.11;58.41;102164.09;2097298;28;20180;-67
2022/03/24 04:04:35;;;;;;;24.15;16.13;;;;;;;3.37;57.45;102040.63;2096940;28;20242;-66
2022/03/24 04:05:36;;;;;;;27.57;15.77;;;;;;;4.12;58.27;102161.00;2097278;28;20341;-66
2022/03/24 04:06:36;;;;;;;25.70;15.83;;;;;;;4.13;57.91;102156.31;2096984;28;20311;-66
2022/03/24 04:07:37;;;;;;;25.03;15.93;;;;;;;4.16;58.59;102156.38;2097029;28;20180;-66
2022/03/24 04:08:39;;;;;;;25.33;16.10;;;;;;;4.15;57.86;102154.81;2097060;28;20182;-67
2022/03/24 04:09:39;;;;;;;26.83;15.52;;;;;;;4.17;58.31;102158.00;2097111;28;20203;-66
2022/03/24 04:10:40;;;;;;;27.50;16.13;;;;;;;4.16;58.82;102161.88;2097035;28;20171;-66
2022/03/24 04:11:40;;;;;;;22.87;15.17;;;;;;;4.18;58.91;102162.34;2097270;28;20183;-66
2022/03/24 04:12:43;;;;;;;23.00;16.50;;;;;;;4.09;58.29;102153.47;2096703;28;20640;-66
2022/03/24 04:13:44;;;;;;;23.60;16.52;;;;;;;4.01;58.23;102137.97;2096732;28;20206;-67
2022/03/24 04:14:44;;;;;;;24.50;16.27;;;;;;;4.14;58.67;102161.44;2097105;28;20176;-66
2022/03/24 04:15:49;;;;;;;26.13;16.23;;;;;;;4.17;58.94;102155.25;2097343;28;20241;-66
2022/03/24 04:16:51;;;;;;;23.17;15.50;;;;;;;4.12;59.02;102162.94;2096937;28;20672;-67
2022/03/24 04:17:52;;;;;;;22.70;14.88;;;;;;;2.97;58.84;101985.13;2096660;28;20171;-66
2022/03/24 04:18:52;;;;;;;22.53;15.50;;;;;;;3.70;59.52;102098.72;2097203;28;20196;-66
2022/03/24 04:19:53;;;;;;;24.37;15.73;;;;;;;4.09;60.04;102149.91;2097080;28;20168;-66
2022/03/24 04:20:54;;;;;;;22.57;15.50;;;;;;;4.08;59.88;102159.28;2097016;28;20176;-67
2022/03/24 04:21:54;;;;;;;24.73;15.23;;;;;;;4.10;59.68;102151.53;2096967;28;20234;-67
2022/03/24 04:22:59;;;;;;;23.00;14.87;;;;;;;4.13;61.70;102153.56;2096755;28;20184;-66
2022/03/24 04:24:00;;;;;;;26.20;16.05;;;;;;;4.01;60.73;102137.19;2096743;28;20848;-67
2022/03/24 04:25:02;;;;;;;27.10;15.53;;;;;;;4.09;60.03;102145.25;2097056;28;20176;-66
2022/03/24 04:26:03;;;;;;;20.90;14.38;;;;;;;3.40;59.39;102037.19;2097054;28;20247;-67
2022/03/24 04:27:06;;;;;;;25.63;15.40;;;;;;;4.12;60.34;102143.75;2096979;28;20175;-67
2022/03/24 04:28:07;;;;;;;26.50;15.57;;;;;;;4.23;60.67;102158.53;2096897;28;20259;-67
2022/03/24 04:29:08;;;;;;;21.02;14.73;;;;;;;4.26;61.79;102158.63;2097044;28;20184;-66
2022/03/24 04:30:09;;;;;;;22.20;15.27;;;;;;;4.27;60.84;102151.19;2096966;28;20176;-67
2022/03/24 04:31:10;;;;;;;22.40;14.57;;;;;;;3.54;60.72;102032.88;2097112;28;20183;-67
2022/03/24 04:32:30;;;;;;;26.02;15.25;;;;;;;4.33;60.73;102155.25;2096558;28;20183;-67
2022/03/24 04:33:30;;;;;;;23.52;15.40;;;;;;;4.35;60.56;102155.69;2097075;28;20225;-66
2022/03/24 04:34:31;;;;;;;22.93;15.10;;;;;;;4.35;60.79;102152.94;2096803;28;20195;-67
2022/03/24 04:35:32;;;;;;;22.23;15.17;;;;;;;3.99;62.44;102099.13;2098067;28;20183;-66
2022/03/24 04:36:33;;;;;;;24.50;14.13;;;;;;;4.39;61.75;102151.09;2098522;28;20180;-66
2022/03/24 04:37:33;;;;;;;23.63;14.83;;;;;;;3.04;62.17;101931.31;2098175;28;20183;-66
2022/03/24 04:38:37;;;;;;;27.17;14.73;;;;;;;3.88;61.76;102067.88;2097886;28;20645;-66
2022/03/24 04:39:37;;;;;;;19.98;14.68;;;;;;;4.46;62.00;102154.03;2098048;28;20176;-67
2022/03/24 04:40:38;;;;;;;24.10;15.00;;;;;;;4.48;61.14;102151.72;2098522;28;20677;-66
2022/03/24 04:41:38;;;;;;;20.53;15.13;;;;;;;4.49;60.90;102154.13;2098701;28;20252;-67
2022/03/24 04:42:39;;;;;;;24.00;15.00;;;;;;;4.55;62.24;102152.69;2098195;28;20225;-66
2022/03/24 04:43:40;;;;;;;23.47;14.73;;;;;;;4.51;61.71;102138.09;2098234;28;20676;-67
2022/03/24 04:44:40;;;;;;;22.63;14.67;;;;;;;4.56;61.03;102153.50;2098307;28;20186;-66
2022/03/24 04:45:41;;;;;;;21.23;14.00;;;;;;;4.57;61.36;102152.34;2098542;28;20175;-66